createdAt,value
2019-01-15T00:00:45.516Z,99.99
2019-01-15T00:01:55.869Z,99.99
2019-01-15T00:03:05.925Z,99.99
2019-01-15T00:04:15.997Z,99.99
2019-01-15T00:05:26.100Z,99.99
2019-01-15T00:06:36.188Z,99.99
2019-01-15T00:07:46.017Z,99.99
2019-01-15T00:08:55.908Z,99.99
2019-01-15T00:10:06.026Z,99.99
2019-01-15T00:11:16.099Z,99.99
2019-01-15T00:12:26.207Z,99.99
2019-01-15T00:13:36.033Z,99.99
2019-01-15T00:14:46.117Z,99.99
2019-01-15T00:15:56.192Z,99.99
2019-01-15T00:17:06.516Z,99.99
2019-01-15T00:18:16.611Z,99.99
2019-01-15T00:19:26.438Z,99.99
2019-01-15T00:20:36.582Z,99.99
2019-01-15T00:21:46.433Z,99.99
2019-01-15T00:22:56.500Z,99.99
2019-01-15T00:24:06.560Z,99.99
2019-01-15T00:25:16.664Z,99.99
2019-01-15T00:26:26.781Z,99.99
2019-01-15T00:27:36.868Z,99.99
2019-01-15T00:28:46.946Z,99.99
2019-01-15T00:29:57.032Z,99.99
2019-01-15T00:31:07.134Z,99.99
2019-01-15T00:32:16.958Z,99.99
2019-01-15T00:33:27.058Z,99.99
2019-01-15T00:34:36.868Z,99.99
2019-01-15T00:35:46.926Z,99.99
2019-01-15T00:36:57.022Z,99.99
2019-01-15T00:38:06.848Z,99.99
2019-01-15T00:39:16.947Z,99.99
2019-01-15T00:40:27.034Z,99.99
2019-01-15T00:41:37.170Z,99.99
2019-01-15T00:42:47.282Z,99.99
2019-01-15T00:43:57.409Z,99.99
2019-01-15T00:45:07.468Z,99.99
2019-01-15T00:46:17.335Z,99.99
2019-01-15T00:47:27.409Z,99.99
2019-01-15T00:48:37.736Z,99.99
2019-01-15T00:49:47.590Z,99.99
2019-01-15T00:50:57.675Z,99.99
2019-01-15T00:52:07.957Z,99.99
2019-01-15T00:53:18.093Z,99.99
2019-01-15T00:54:28.141Z,99.99
2019-01-15T00:55:38.302Z,99.99
2019-01-15T00:56:48.370Z,99.99
2019-01-15T00:57:58.149Z,99.99
2019-01-15T00:59:07.941Z,99.99
2019-01-15T01:00:18.616Z,99.99
2019-01-15T01:01:28.668Z,99.99
2019-01-15T01:02:38.491Z,99.99
2019-01-15T01:03:48.841Z,99.99
2019-01-15T01:04:58.918Z,99.99
2019-01-15T01:06:09.077Z,99.99
2019-01-15T01:07:19.147Z,99.99
2019-01-15T01:08:29.247Z,99.99
2019-01-15T01:09:39.321Z,99.99
2019-01-15T01:10:49.381Z,99.99
2019-01-15T01:11:59.272Z,99.99
2019-01-15T01:13:09.385Z,99.99
2019-01-15T01:14:19.477Z,99.99
2019-01-15T01:15:29.552Z,99.99
2019-01-15T01:16:39.618Z,99.99
2019-01-15T01:17:49.714Z,99.99
2019-01-15T01:19:00.072Z,99.99
2019-01-15T01:20:09.897Z,99.99
2019-01-15T01:21:19.703Z,99.99
2019-01-15T01:22:29.757Z,99.99
2019-01-15T01:23:39.834Z,99.99
2019-01-15T01:24:49.916Z,99.99
2019-01-15T01:25:59.985Z,99.99
2019-01-15T01:27:10.382Z,99.99
2019-01-15T01:28:20.443Z,99.99
2019-01-15T01:29:30.248Z,99.99
2019-01-15T01:30:40.172Z,99.99
2019-01-15T01:31:50.246Z,99.99
2019-01-15T01:33:01.311Z,99.99
2019-01-15T01:34:11.403Z,99.99
2019-01-15T01:35:21.487Z,99.99
2019-01-15T01:36:31.591Z,99.99
2019-01-15T01:37:41.653Z,99.99
2019-01-15T01:38:51.720Z,99.99
2019-01-15T01:40:01.535Z,99.99
2019-01-15T01:41:11.361Z,99.99
2019-01-15T01:42:20.900Z,99.99
2019-01-15T01:43:37.250Z,99.99
2019-01-15T01:44:47.341Z,99.99
2019-01-15T01:45:57.400Z,99.99
2019-01-15T01:47:07.453Z,99.99
2019-01-15T01:48:17.604Z,99.99
2019-01-15T01:49:27.496Z,99.99
2019-01-15T01:50:37.341Z,99.99
2019-01-15T01:51:47.131Z,99.99
2019-01-15T01:52:56.943Z,99.99
2019-01-15T01:54:06.869Z,99.99
2019-01-15T01:55:16.930Z,99.99
2019-01-15T01:56:26.991Z,99.99
2019-01-15T01:57:37.073Z,99.99
2019-01-15T01:58:46.962Z,99.99
2019-01-15T01:59:56.780Z,99.99
2019-01-15T02:01:07.144Z,99.99
2019-01-15T02:02:17.490Z,99.99
2019-01-15T02:03:27.805Z,99.99
2019-01-15T02:04:37.604Z,99.99
2019-01-15T02:05:47.584Z,99.99
2019-01-15T02:06:57.677Z,99.99
2019-01-15T02:08:07.740Z,99.99
2019-01-15T02:09:17.800Z,99.99
2019-01-15T02:10:27.863Z,99.99
2019-01-15T02:11:38.162Z,99.99
2019-01-15T02:12:48.232Z,99.99
2019-01-15T02:13:58.497Z,99.99
2019-01-15T02:15:08.290Z,99.99
2019-01-15T02:16:18.339Z,99.99
2019-01-15T02:17:28.424Z,99.99
2019-01-15T02:18:38.227Z,99.99
2019-01-15T02:19:48.292Z,99.99
2019-01-15T02:20:58.121Z,99.99
2019-01-15T02:22:08.826Z,99.99
2019-01-15T02:23:18.906Z,99.99
2019-01-15T02:24:28.713Z,99.99
2019-01-15T02:25:38.550Z,99.99
2019-01-15T02:26:48.819Z,99.99
2019-01-15T02:27:59.122Z,99.99
2019-01-15T02:29:08.964Z,99.99
2019-01-15T02:30:19.024Z,99.99
2019-01-15T02:31:29.146Z,99.99
2019-01-15T02:32:39.226Z,99.99
2019-01-15T02:33:49.383Z,99.99
2019-01-15T02:34:59.465Z,99.99
2019-01-15T02:36:09.522Z,99.99
2019-01-15T02:37:19.340Z,99.99
2019-01-15T02:38:29.465Z,99.99
2019-01-15T02:39:39.679Z,99.99
2019-01-15T02:40:49.913Z,99.99
2019-01-15T02:42:00.003Z,99.99
2019-01-15T02:43:10.070Z,99.99
2019-01-15T02:44:19.857Z,99.99
2019-01-15T02:45:29.920Z,99.99
2019-01-15T02:46:40.000Z,99.99
2019-01-15T02:47:50.077Z,99.99
2019-01-15T02:49:00.364Z,99.99
2019-01-15T02:50:10.454Z,99.99
2019-01-15T02:51:20.267Z,99.99
2019-01-15T02:52:30.110Z,99.99
2019-01-15T02:53:39.908Z,99.99
2019-01-15T02:54:49.454Z,99.99
2019-01-15T02:55:59.507Z,99.99
2019-01-15T02:57:10.237Z,99.99
2019-01-15T02:58:20.293Z,99.99
2019-01-15T02:59:30.366Z,99.99
2019-01-15T03:00:40.444Z,99.99
2019-01-15T03:01:50.526Z,99.99
2019-01-15T03:03:00.841Z,99.99
2019-01-15T03:34:47.509Z,95.78
2019-01-15T03:35:57.590Z,96.26
2019-01-15T03:37:07.663Z,96.83
2019-01-15T03:38:17.730Z,97.58
2019-01-15T03:39:27.775Z,98.15
2019-01-15T03:40:37.657Z,98.82
2019-01-15T03:41:47.721Z,99.52
2019-01-15T03:43:05.676Z,99.99
2019-01-15T03:44:15.728Z,99.99
2019-01-15T03:45:25.785Z,99.99
2019-01-15T03:46:35.946Z,99.99
2019-01-15T03:47:45.759Z,99.99
2019-01-15T03:48:55.814Z,99.99
2019-01-15T03:50:05.993Z,99.99
2019-01-15T03:51:15.800Z,99.99
2019-01-15T03:52:26.133Z,99.99
2019-01-15T03:53:36.357Z,99.99
2019-01-15T03:54:46.410Z,99.99
2019-01-15T03:55:56.485Z,99.99
2019-01-15T03:57:06.303Z,99.99
2019-01-15T03:58:16.423Z,99.99
2019-01-15T03:59:26.501Z,99.99
2019-01-15T04:00:36.769Z,99.99
2019-01-15T04:01:46.839Z,99.99
2019-01-15T04:02:56.891Z,99.99
2019-01-15T04:04:08.233Z,99.99
2019-01-15T04:05:18.568Z,99.99
2019-01-15T04:06:28.581Z,99.99
2019-01-15T04:07:38.703Z,99.99
2019-01-15T04:08:48.760Z,99.99
2019-01-15T04:09:58.884Z,99.99
2019-01-15T04:11:11.363Z,99.99
2019-01-15T04:12:21.429Z,99.99
2019-01-15T04:13:31.520Z,99.99
2019-01-15T04:14:41.808Z,99.99
2019-01-15T04:15:51.651Z,99.99
2019-01-15T04:17:02.006Z,99.99
2019-01-15T04:18:12.067Z,99.99
2019-01-15T04:19:22.119Z,99.99
2019-01-15T04:20:32.295Z,99.99
2019-01-15T04:21:42.178Z,99.99
2019-01-15T04:22:52.059Z,99.99
2019-01-15T04:24:02.118Z,99.99
2019-01-15T04:25:12.211Z,99.99
2019-01-15T04:26:22.316Z,99.99
2019-01-15T04:27:32.591Z,99.99
2019-01-15T04:28:42.660Z,99.99
2019-01-15T04:29:52.518Z,99.99
2019-01-15T04:31:02.758Z,99.99
2019-01-15T04:32:12.796Z,99.99
2019-01-15T04:33:22.865Z,99.99
2019-01-15T04:34:32.677Z,99.99
2019-01-15T04:35:43.135Z,99.99
2019-01-15T04:36:53.212Z,99.99
2019-01-15T04:38:05.387Z,99.99
2019-01-15T04:39:15.491Z,99.99
2019-01-15T04:40:25.351Z,99.99
2019-01-15T04:41:35.428Z,99.99
2019-01-15T04:42:45.488Z,99.99
2019-01-15T04:43:55.333Z,99.99
2019-01-15T04:45:05.587Z,99.99
2019-01-15T04:46:15.659Z,99.99
2019-01-15T04:47:25.759Z,99.99
2019-01-15T04:48:35.881Z,99.99
2019-01-15T04:49:45.958Z,99.99
2019-01-15T04:50:55.865Z,99.99
2019-01-15T04:52:05.927Z,99.99
2019-01-15T04:53:15.992Z,99.99
2019-01-15T04:54:26.068Z,99.99
2019-01-15T04:55:36.119Z,99.99
2019-01-15T04:56:46.185Z,99.99
2019-01-15T04:57:56.247Z,99.99
2019-01-15T04:59:06.965Z,99.99
2019-01-15T05:00:17.341Z,99.99
2019-01-15T05:01:27.447Z,99.99
2019-01-15T05:02:37.530Z,99.99
2019-01-15T05:03:49.680Z,99.99
2019-01-15T05:04:59.652Z,99.99
2019-01-15T05:06:10.673Z,99.99
2019-01-15T05:07:20.740Z,99.99
2019-01-15T05:08:30.888Z,99.99
2019-01-15T05:09:41.072Z,99.99
2019-01-15T05:10:51.237Z,99.99
2019-01-15T05:12:01.392Z,99.99
2019-01-15T05:13:11.479Z,99.99
2019-01-15T05:14:21.534Z,99.99
2019-01-15T05:15:31.543Z,99.99
2019-01-15T05:16:41.715Z,99.99
2019-01-15T05:17:52.039Z,99.99
2019-01-15T05:19:01.869Z,99.99
2019-01-15T05:20:11.938Z,99.99
2019-01-15T05:21:22.000Z,99.99
2019-01-15T05:22:32.067Z,99.99
2019-01-15T05:23:42.135Z,99.99
2019-01-15T05:24:51.951Z,99.99
2019-01-15T05:26:02.127Z,99.99
2019-01-15T05:27:12.310Z,99.99
2019-01-15T05:28:22.658Z,99.99
2019-01-15T05:29:32.747Z,99.99
2019-01-15T05:30:42.815Z,99.99
2019-01-15T05:31:52.905Z,99.99
2019-01-15T05:33:03.195Z,99.99
2019-01-15T05:34:13.256Z,99.99
2019-01-15T05:35:23.272Z,99.99
2019-01-15T05:36:33.356Z,99.99
2019-01-15T05:37:43.455Z,99.99
2019-01-15T05:38:53.556Z,99.99
2019-01-15T05:40:06.838Z,99.99
2019-01-15T05:41:16.953Z,99.99
2019-01-15T05:42:26.779Z,99.99
2019-01-15T05:43:38.372Z,99.99
2019-01-15T05:44:48.281Z,99.99
2019-01-15T05:45:58.338Z,99.99
2019-01-15T05:47:07.990Z,99.99
2019-01-15T05:48:18.070Z,99.99
2019-01-15T05:49:27.749Z,99.99
2019-01-15T05:50:37.570Z,99.99
2019-01-15T05:51:47.627Z,99.99
2019-01-15T05:52:57.685Z,99.99
2019-01-15T05:54:07.789Z,99.99
2019-01-15T05:55:17.870Z,99.99
2019-01-15T05:56:27.723Z,99.99
2019-01-15T05:57:37.811Z,99.99
2019-01-15T05:58:47.884Z,99.99
2019-01-15T05:59:57.754Z,99.99
2019-01-15T06:01:07.735Z,99.99
2019-01-15T06:02:17.795Z,99.99
2019-01-15T06:03:27.630Z,99.99
2019-01-15T06:04:37.682Z,99.99
2019-01-15T06:05:47.767Z,99.99
2019-01-15T06:06:57.895Z,99.99
2019-01-15T06:08:08.004Z,99.99
2019-01-15T06:09:18.099Z,99.99
2019-01-15T06:10:28.179Z,99.99
2019-01-15T06:11:38.242Z,99.99
2019-01-15T06:12:48.331Z,99.99
2019-01-15T06:13:58.590Z,99.99
2019-01-15T06:15:10.453Z,99.99
2019-01-15T06:16:20.518Z,99.99
2019-01-15T06:17:31.054Z,99.99
2019-01-15T06:18:41.142Z,99.99
2019-01-15T06:19:50.969Z,99.99
2019-01-15T06:21:01.020Z,99.99
2019-01-15T06:22:11.094Z,99.99
2019-01-15T06:23:20.929Z,99.99
2019-01-15T06:24:30.816Z,99.99
2019-01-15T06:25:40.948Z,99.99
2019-01-15T06:26:51.026Z,99.99
2019-01-15T06:28:01.169Z,99.99
2019-01-15T06:29:11.226Z,99.99
2019-01-15T06:30:21.371Z,99.99
2019-01-15T06:31:31.448Z,99.99
2019-01-15T06:32:41.541Z,99.99
2019-01-15T06:33:51.658Z,99.99
2019-01-15T06:35:01.471Z,99.99
2019-01-15T06:36:11.556Z,99.99
2019-01-15T06:37:21.649Z,99.99
2019-01-15T06:38:31.736Z,99.99
2019-01-15T06:39:41.849Z,99.99
2019-01-15T06:40:51.934Z,99.99
2019-01-15T06:42:02.016Z,99.99
2019-01-15T06:43:11.845Z,99.99
2019-01-15T06:44:22.153Z,99.99
2019-01-15T06:45:32.337Z,99.99
2019-01-15T06:46:42.231Z,99.99
2019-01-15T06:47:51.775Z,99.99
2019-01-15T06:49:02.037Z,99.99
2019-01-15T06:50:12.405Z,99.99
2019-01-15T06:51:22.943Z,99.99
2019-01-15T06:52:33.131Z,99.99
2019-01-15T06:53:43.285Z,99.99
2019-01-15T06:54:53.360Z,99.99
2019-01-15T06:56:03.504Z,99.99
2019-01-15T06:57:13.317Z,99.99
2019-01-15T06:58:23.404Z,99.99
2019-01-15T06:59:33.527Z,99.99
2019-01-15T07:00:43.366Z,99.99
2019-01-15T07:01:53.443Z,99.99
2019-01-15T07:03:03.726Z,99.99
2019-01-15T07:04:13.788Z,99.99
2019-01-15T07:05:23.874Z,99.99
2019-01-15T07:06:33.978Z,99.99
2019-01-15T07:07:44.217Z,99.99
2019-01-15T07:08:54.317Z,99.99
2019-01-15T07:10:04.385Z,99.99
2019-01-15T07:11:14.454Z,99.99
2019-01-15T07:12:24.605Z,99.99
2019-01-15T07:13:34.892Z,99.99
2019-01-15T07:14:44.974Z,99.99
2019-01-15T07:15:55.054Z,99.99
2019-01-15T07:17:05.190Z,99.99
2019-01-15T07:18:15.508Z,99.99
2019-01-15T07:19:25.360Z,99.99
2019-01-15T07:20:35.458Z,99.99
2019-01-15T07:21:45.531Z,99.99
2019-01-15T07:22:55.585Z,99.99
2019-01-15T07:24:05.609Z,99.99
2019-01-15T07:25:15.677Z,99.99
2019-01-15T07:26:25.745Z,99.99
2019-01-15T07:27:36.405Z,99.99
2019-01-15T07:28:46.213Z,99.99
2019-01-15T07:29:56.007Z,99.99
2019-01-15T07:31:08.810Z,99.99
2019-01-15T07:32:19.112Z,99.99
2019-01-15T07:33:29.175Z,99.99
2019-01-15T07:34:39.291Z,99.99
2019-01-15T07:35:49.417Z,99.99
2019-01-15T07:36:59.232Z,99.99
2019-01-15T07:38:09.298Z,99.99
2019-01-15T07:39:19.110Z,99.99
2019-01-15T07:40:30.691Z,99.99
2019-01-15T07:41:40.747Z,99.99
2019-01-15T07:42:50.560Z,99.99
2019-01-15T07:44:06.782Z,99.99
2019-01-15T07:45:16.837Z,99.99
2019-01-15T07:46:26.889Z,99.99
2019-01-15T07:47:36.970Z,99.99
2019-01-15T07:48:47.034Z,99.99
2019-01-15T07:49:57.114Z,99.99
2019-01-15T07:51:08.357Z,99.99
2019-01-15T07:52:18.451Z,99.99
2019-01-15T07:53:29.385Z,99.99
2019-01-15T07:54:39.890Z,99.99
2019-01-15T07:55:49.994Z,99.99
2019-01-15T07:57:00.075Z,99.99
2019-01-15T07:58:10.710Z,99.99
2019-01-15T07:59:20.844Z,99.99
2019-01-15T08:00:30.646Z,99.99
2019-01-15T08:01:40.912Z,99.99
2019-01-15T08:02:51.049Z,99.99
2019-01-15T08:04:03.202Z,99.99
2019-01-15T08:05:13.579Z,99.99
2019-01-15T08:06:23.729Z,99.99
2019-01-15T08:07:35.566Z,99.99
2019-01-15T08:08:46.102Z,99.99
2019-01-15T08:09:56.059Z,99.99
2019-01-15T08:11:06.148Z,99.99
2019-01-15T08:12:16.467Z,99.99
2019-01-15T08:13:26.312Z,99.99
2019-01-15T08:14:36.127Z,99.99
2019-01-15T08:15:45.941Z,99.99
2019-01-15T08:16:55.757Z,99.99
2019-01-15T08:18:05.583Z,99.99
2019-01-15T08:19:15.689Z,99.99
2019-01-15T08:20:25.784Z,99.99
2019-01-15T08:21:35.662Z,99.99
2019-01-15T08:22:45.517Z,99.99
2019-01-15T08:23:55.660Z,99.99
2019-01-15T08:25:05.805Z,99.99
2019-01-15T08:26:15.914Z,99.99
2019-01-15T08:27:25.968Z,99.99
2019-01-15T08:28:36.290Z,99.99
2019-01-15T08:29:46.390Z,99.99
2019-01-15T08:30:56.449Z,99.99
2019-01-15T08:32:07.609Z,99.99
2019-01-15T08:33:17.666Z,99.99
2019-01-15T08:34:27.506Z,99.99
2019-01-15T08:35:37.816Z,99.99
2019-01-15T08:36:47.869Z,99.99
2019-01-15T08:37:57.931Z,99.99
2019-01-15T08:39:09.393Z,99.99
2019-01-15T08:40:19.512Z,99.99
2019-01-15T08:41:29.565Z,99.99
2019-01-15T08:42:39.917Z,99.99
2019-01-15T08:43:50.534Z,99.99
2019-01-15T08:45:02.466Z,99.99
2019-01-15T08:46:12.273Z,99.99
2019-01-15T08:47:22.839Z,99.99
2019-01-15T08:48:33.062Z,99.99
2019-01-15T08:49:43.294Z,99.99
2019-01-15T08:50:53.865Z,99.99
2019-01-15T08:52:03.911Z,99.99
2019-01-15T08:53:14.330Z,99.99
2019-01-15T08:54:26.224Z,99.99
2019-01-15T08:55:36.244Z,99.99
2019-01-15T08:56:46.434Z,99.99
2019-01-15T08:57:56.549Z,99.99
2019-01-15T08:59:06.404Z,99.99
2019-01-15T09:00:16.662Z,99.99
2019-01-15T09:01:27.152Z,99.99
2019-01-15T09:02:37.447Z,99.99
2019-01-15T09:03:47.515Z,99.99
2019-01-15T09:04:57.601Z,99.99
2019-01-15T09:06:07.768Z,99.99
2019-01-15T09:07:17.675Z,99.99
2019-01-15T09:08:27.915Z,99.99
2019-01-15T09:09:38.026Z,99.99
2019-01-15T09:10:48.598Z,99.99
2019-01-15T09:11:58.772Z,99.99
2019-01-15T09:13:09.473Z,99.99
2019-01-15T09:14:26.535Z,99.99
2019-01-15T09:15:37.567Z,99.99
2019-01-15T09:16:47.749Z,99.99
2019-01-15T09:17:58.215Z,99.99
2019-01-15T09:19:08.645Z,99.99
2019-01-15T09:20:18.781Z,99.99
2019-01-15T09:21:28.530Z,99.99
2019-01-15T09:22:38.649Z,99.99
2019-01-15T09:23:48.911Z,99.99
2019-01-15T09:24:58.825Z,99.99
2019-01-15T09:26:09.032Z,99.99
2019-01-15T09:27:19.899Z,99.99
2019-01-15T09:28:30.037Z,99.99
2019-01-15T09:29:39.976Z,99.99
2019-01-15T09:30:50.044Z,99.99
2019-01-15T09:31:59.666Z,99.99
2019-01-15T09:33:09.486Z,99.99
2019-01-15T09:34:19.614Z,99.99
2019-01-15T09:35:29.706Z,99.99
2019-01-15T09:36:39.796Z,99.99
2019-01-15T09:37:49.910Z,99.99
2019-01-15T09:38:59.969Z,99.99
2019-01-15T09:40:10.040Z,99.99
2019-01-15T09:41:20.170Z,99.99
2019-01-15T09:42:30.735Z,99.99
2019-01-15T09:43:40.901Z,99.99
2019-01-15T09:44:50.811Z,99.99
2019-01-15T09:46:01.438Z,99.99
2019-01-15T09:47:11.629Z,99.99
2019-01-15T09:48:22.550Z,99.99
2019-01-15T09:49:32.609Z,99.99
2019-01-15T09:50:42.979Z,99.99
2019-01-15T09:51:53.066Z,99.99
2019-01-15T09:53:03.221Z,99.99
2019-01-15T09:54:13.310Z,99.99
2019-01-15T09:55:22.918Z,99.99
2019-01-15T09:56:32.724Z,99.99
2019-01-15T09:57:43.425Z,99.99
2019-01-15T09:58:53.290Z,99.99
2019-01-15T10:00:03.606Z,99.99
2019-01-15T10:01:14.132Z,99.99
2019-01-15T10:02:24.229Z,99.99
2019-01-15T10:03:34.403Z,99.99
2019-01-15T10:04:44.498Z,99.99
2019-01-15T10:05:55.781Z,99.99
2019-01-15T10:07:05.943Z,99.99
2019-01-15T10:08:16.010Z,99.99
2019-01-15T10:09:26.095Z,99.99
2019-01-15T10:10:36.156Z,99.99
2019-01-15T10:11:45.945Z,99.99
2019-01-15T10:12:55.776Z,99.99
2019-01-15T10:14:05.589Z,99.99
2019-01-15T10:15:15.235Z,99.99
2019-01-15T10:16:25.303Z,99.99
2019-01-15T10:17:35.394Z,99.99
2019-01-15T10:18:45.589Z,99.99
2019-01-15T10:19:55.663Z,99.99
2019-01-15T10:21:05.824Z,99.99
2019-01-15T10:22:15.908Z,99.99
2019-01-15T10:23:25.982Z,99.99
2019-01-15T10:24:36.045Z,99.99
2019-01-15T10:25:45.862Z,99.99
2019-01-15T10:26:56.139Z,99.99
2019-01-15T10:28:07.715Z,99.99
2019-01-15T10:29:18.306Z,99.99
2019-01-15T10:30:28.115Z,99.99
2019-01-15T10:31:38.668Z,99.99
2019-01-15T10:32:48.617Z,99.99
2019-01-15T10:33:58.686Z,99.99
2019-01-15T10:35:08.778Z,99.99
2019-01-15T10:36:18.840Z,99.99
2019-01-15T10:37:28.921Z,99.99
2019-01-15T10:38:39.016Z,99.99
2019-01-15T10:39:48.844Z,99.99
2019-01-15T10:40:58.771Z,99.99
2019-01-15T10:42:09.026Z,99.99
2019-01-15T10:43:19.291Z,99.99
2019-01-15T10:44:29.348Z,99.99
2019-01-15T10:45:39.695Z,99.99
2019-01-15T10:46:49.676Z,99.99
2019-01-15T10:47:59.771Z,99.99
2019-01-15T10:49:10.188Z,99.99
2019-01-15T10:50:20.216Z,99.99
2019-01-15T10:51:30.046Z,99.99
2019-01-15T10:52:40.205Z,99.99
2019-01-15T10:53:50.047Z,99.99
2019-01-15T10:55:00.208Z,99.99
2019-01-15T10:56:10.317Z,99.99
2019-01-15T10:57:20.402Z,99.99
2019-01-15T10:58:30.304Z,99.99
2019-01-15T10:59:40.427Z,99.99
2019-01-15T11:00:50.514Z,99.99
2019-01-15T11:02:01.594Z,99.99
2019-01-15T11:03:11.398Z,99.99
2019-01-15T11:04:21.505Z,99.99
2019-01-15T11:05:31.696Z,99.99
2019-01-15T11:06:41.787Z,99.99
2019-01-15T11:07:51.844Z,99.99
2019-01-15T11:09:03.593Z,99.99
2019-01-15T11:10:13.729Z,99.99
2019-01-15T11:11:23.838Z,99.99
2019-01-15T11:12:33.647Z,99.99
2019-01-15T11:13:43.701Z,99.99
2019-01-15T11:14:58.593Z,99.99
2019-01-15T11:16:09.206Z,99.99
2019-01-15T11:17:19.294Z,99.99
2019-01-15T11:18:29.617Z,99.99
2019-01-15T11:19:39.744Z,99.99
2019-01-15T11:20:49.623Z,99.99
2019-01-15T11:21:59.775Z,99.99
2019-01-15T11:23:09.845Z,99.99
2019-01-15T11:24:20.179Z,99.99
2019-01-15T11:25:30.261Z,99.99
2019-01-15T11:26:40.182Z,99.99
2019-01-15T11:27:50.293Z,99.99
2019-01-15T11:29:00.110Z,99.99
2019-01-15T11:30:10.212Z,99.99
2019-01-15T11:31:20.384Z,99.99
2019-01-15T11:32:30.279Z,99.99
2019-01-15T11:33:40.237Z,99.99
2019-01-15T11:34:50.304Z,99.99
2019-01-15T11:36:00.146Z,99.99
2019-01-15T11:37:10.394Z,99.99
2019-01-15T11:38:19.941Z,99.99
2019-01-15T11:39:29.741Z,99.88
2019-01-15T11:40:39.830Z,99.69
2019-01-15T11:41:50.171Z,99.6
2019-01-15T11:43:00.522Z,99.69
2019-01-15T11:44:10.597Z,99.69
2019-01-15T11:45:20.943Z,99.69
2019-01-15T11:46:31.040Z,99.79
2019-01-15T11:47:41.175Z,99.88
2019-01-15T11:48:51.264Z,99.99
2019-01-15T11:50:03.389Z,99.99
2019-01-15T11:51:14.305Z,99.99
2019-01-15T11:52:24.407Z,99.98
2019-01-15T11:53:34.470Z,99.99
2019-01-15T11:54:44.283Z,99.99
2019-01-15T11:55:54.343Z,99.99
2019-01-15T11:57:04.678Z,99.99
2019-01-15T11:58:14.797Z,99.88
2019-01-15T11:59:24.607Z,99.98
2019-01-15T12:00:34.662Z,99.98
2019-01-15T12:01:44.741Z,99.88
2019-01-15T12:02:54.977Z,99.99
2019-01-15T12:04:05.057Z,99.99
2019-01-15T12:05:15.131Z,99.99
2019-01-15T12:06:24.688Z,99.99
2019-01-15T12:07:34.762Z,99.99
2019-01-15T12:08:44.632Z,99.99
2019-01-15T12:09:54.448Z,99.99
2019-01-15T12:11:05.415Z,99.99
2019-01-15T12:12:15.472Z,99.99
2019-01-15T12:13:25.610Z,99.99
2019-01-15T12:14:35.717Z,99.99
2019-01-15T12:15:45.796Z,99.99
2019-01-15T12:16:55.940Z,99.99
2019-01-15T12:18:06.274Z,99.99
2019-01-15T12:19:16.192Z,99.99
2019-01-15T12:20:26.301Z,99.99
2019-01-15T12:21:35.897Z,99.99
2019-01-15T12:22:45.964Z,99.98
2019-01-15T12:23:56.056Z,99.98
2019-01-15T12:25:07.300Z,99.99
2019-01-15T12:26:17.666Z,99.99
2019-01-15T12:27:27.756Z,99.99
2019-01-15T12:28:38.013Z,99.99
2019-01-15T12:29:48.450Z,99.99
2019-01-15T12:30:58.548Z,99.99
2019-01-15T12:32:08.671Z,99.99
2019-01-15T12:33:18.737Z,99.99
2019-01-15T12:34:28.559Z,99.99
2019-01-15T12:35:38.645Z,99.99
2019-01-15T12:36:48.467Z,99.99
2019-01-15T12:37:58.536Z,99.99
2019-01-15T12:39:08.606Z,99.99
2019-01-15T12:40:19.468Z,99.99
2019-01-15T12:41:29.777Z,99.99
2019-01-15T12:42:39.918Z,99.99
2019-01-15T12:43:49.990Z,99.99
2019-01-15T12:45:00.048Z,99.99
2019-01-15T12:46:10.211Z,99.99
2019-01-15T12:47:20.371Z,99.99
2019-01-15T12:48:30.462Z,99.99
2019-01-15T12:49:40.823Z,99.99
2019-01-15T12:50:50.647Z,99.99
2019-01-15T12:52:01.323Z,99.99
2019-01-15T12:53:11.397Z,99.99
2019-01-15T12:54:21.482Z,99.99
2019-01-15T12:55:31.575Z,99.99
2019-01-15T12:56:41.847Z,99.99
2019-01-15T12:57:52.142Z,99.99
2019-01-15T12:59:02.489Z,99.99
2019-01-15T13:00:12.928Z,99.99
2019-01-15T13:01:23.357Z,99.99
2019-01-15T13:02:33.454Z,99.99
2019-01-15T13:03:43.717Z,99.99
2019-01-15T13:04:54.027Z,99.99
2019-01-15T13:06:07.259Z,99.99
2019-01-15T13:07:17.132Z,99.99
2019-01-15T13:08:26.953Z,99.99
2019-01-15T13:09:37.028Z,99.99
2019-01-15T13:10:47.113Z,99.99
2019-01-15T13:11:57.181Z,99.99
2019-01-15T13:13:07.302Z,99.99
2019-01-15T13:14:17.114Z,99.99
2019-01-15T13:15:36.895Z,99.99
2019-01-15T13:16:47.049Z,99.99
2019-01-15T13:17:57.512Z,99.99
2019-01-15T13:19:08.417Z,99.99
2019-01-15T13:20:18.536Z,99.99
2019-01-15T13:21:28.637Z,99.99
2019-01-15T13:22:38.798Z,99.99
2019-01-15T13:23:48.988Z,99.99
2019-01-15T13:24:58.790Z,99.99
2019-01-15T13:26:11.676Z,99.99
2019-01-15T13:27:21.993Z,99.99
2019-01-15T13:28:32.081Z,99.99
2019-01-15T13:29:41.971Z,99.99
2019-01-15T13:30:52.057Z,99.99
2019-01-15T13:32:01.870Z,99.99
2019-01-15T13:33:12.939Z,99.99
2019-01-15T13:34:23.333Z,99.99
2019-01-15T13:35:33.203Z,99.99
2019-01-15T13:36:43.023Z,99.99
2019-01-15T13:37:53.133Z,99.99
2019-01-15T13:39:05.839Z,99.99
2019-01-15T13:40:15.955Z,99.99
2019-01-15T13:41:26.109Z,99.99
2019-01-15T13:42:36.220Z,99.99
2019-01-15T13:43:46.554Z,99.99
2019-01-15T13:44:56.666Z,99.99
2019-01-15T13:46:06.763Z,99.99
2019-01-15T13:47:16.899Z,99.99
2019-01-15T13:48:26.986Z,99.99
2019-01-15T13:49:37.058Z,99.99
2019-01-15T13:50:47.156Z,99.99
2019-01-15T13:51:57.226Z,99.99
2019-01-15T13:53:07.302Z,99.99
2019-01-15T13:54:17.507Z,99.99
2019-01-15T13:55:28.083Z,99.99
2019-01-15T13:56:38.235Z,99.99
2019-01-15T13:57:48.561Z,99.99
2019-01-15T13:58:58.647Z,99.99
2019-01-15T14:00:11.059Z,99.99
2019-01-15T14:01:21.755Z,99.99
2019-01-15T14:02:31.809Z,99.99
2019-01-15T14:03:41.905Z,99.99
2019-01-15T14:04:51.985Z,99.99
2019-01-15T14:06:02.092Z,99.99
2019-01-15T14:07:12.290Z,99.99
2019-01-15T14:08:22.362Z,99.99
2019-01-15T14:09:32.533Z,99.99
2019-01-15T14:10:43.051Z,99.99
2019-01-15T14:11:53.078Z,99.99
2019-01-15T14:13:03.144Z,99.99
2019-01-15T14:14:13.203Z,99.99
2019-01-15T14:15:23.286Z,99.99
2019-01-15T14:16:33.110Z,99.99
2019-01-15T14:17:43.271Z,99.99
2019-01-15T14:18:53.131Z,99.99
2019-01-15T14:20:03.190Z,99.99
2019-01-15T14:21:13.332Z,99.99
2019-01-15T14:22:23.145Z,99.99
2019-01-15T14:23:33.269Z,99.99
2019-01-15T14:24:43.630Z,99.99
2019-01-15T14:25:53.804Z,99.99
2019-01-15T14:27:03.686Z,99.99
2019-01-15T14:28:14.398Z,99.99
2019-01-15T14:29:24.490Z,99.99
2019-01-15T14:30:34.553Z,99.99
2019-01-15T14:31:44.654Z,99.99
2019-01-15T14:32:55.832Z,99.99
2019-01-15T14:34:05.785Z,99.99
2019-01-15T14:35:15.874Z,99.99
2019-01-15T14:36:25.923Z,99.99
2019-01-15T14:37:35.736Z,99.99
2019-01-15T14:38:45.549Z,99.99
2019-01-15T14:39:55.699Z,99.99
2019-01-15T14:41:08.703Z,99.99
2019-01-15T14:42:18.805Z,99.99
2019-01-15T14:43:28.918Z,99.99
2019-01-15T14:44:39.013Z,99.99
2019-01-15T14:45:56.264Z,99.99
2019-01-15T14:47:08.206Z,99.99
2019-01-15T14:48:18.082Z,99.99
2019-01-15T14:49:29.335Z,99.99
2019-01-15T14:50:39.170Z,99.99
2019-01-15T14:51:49.250Z,99.99
2019-01-15T14:52:59.323Z,99.99
2019-01-15T14:54:09.808Z,99.99
2019-01-15T14:55:19.963Z,99.99
2019-01-15T14:56:30.131Z,99.99
2019-01-15T14:57:40.418Z,99.99
2019-01-15T14:58:50.581Z,99.99
2019-01-15T15:00:01.186Z,99.99
2019-01-15T15:01:11.602Z,99.99
2019-01-15T15:02:21.686Z,99.99
2019-01-15T15:03:31.806Z,99.99
2019-01-15T15:04:43.162Z,99.99
2019-01-15T15:05:53.240Z,99.99
2019-01-15T15:07:03.341Z,99.99
2019-01-15T15:08:13.174Z,99.99
2019-01-15T15:09:23.259Z,99.99
2019-01-15T15:10:33.389Z,99.99
2019-01-15T15:11:43.555Z,99.99
2019-01-15T15:12:53.878Z,99.99
2019-01-15T15:14:05.279Z,99.99
2019-01-15T15:15:15.370Z,99.99
2019-01-15T15:16:25.475Z,99.99
2019-01-15T15:17:35.607Z,99.99
2019-01-15T15:18:45.696Z,99.99
2019-01-15T15:19:55.831Z,99.99
2019-01-15T15:21:06.717Z,99.99
2019-01-15T15:22:16.803Z,99.99
2019-01-15T15:23:26.914Z,99.99
2019-01-15T15:24:36.751Z,99.99
2019-01-15T15:25:46.863Z,99.99
2019-01-15T15:26:56.928Z,99.99
2019-01-15T15:28:06.742Z,99.99
2019-01-15T15:29:16.822Z,99.99
2019-01-15T15:30:26.404Z,99.99
2019-01-15T15:31:36.309Z,99.99
2019-01-15T15:32:46.418Z,99.99
2019-01-15T15:33:56.716Z,99.99
2019-01-15T15:35:06.802Z,99.99